sensor_id;sensor_type;location;lat;lon;timestamp;P1;durP1;ratioP1;P2;durP2;ratioP2
23175;SDS011;19910;42.652;23.332;2022-09-01T00:00:05;11.65;;;7.75;;
23175;SDS011;19910;42.652;23.332;2022-09-01T00:02:35;11.63;;;7.18;;
23175;SDS011;19910;42.652;23.332;2022-09-01T00:05:02;11.13;;;7.93;;
23175;SDS011;19910;42.652;23.332;2022-09-01T00:07:31;14.13;;;8.45;;
23175;SDS011;19910;42.652;23.332;2022-09-01T00:10:00;12.90;;;8.18;;
23175;SDS011;19910;42.652;23.332;2022-09-01T00:12:29;13.60;;;8.32;;
23175;SDS011;19910;42.652;23.332;2022-09-01T00:14:58;13.40;;;9.00;;
23175;SDS011;19910;42.652;23.332;2022-09-01T00:17:25;14.38;;;8.35;;
23175;SDS011;19910;42.652;23.332;2022-09-01T00:19:52;14.55;;;9.60;;
23175;SDS011;19910;42.652;23.332;2022-09-01T00:22:19;14.55;;;8.95;;
23175;SDS011;19910;42.652;23.332;2022-09-01T00:24:46;14.85;;;9.55;;
23175;SDS011;19910;42.652;23.332;2022-09-01T00:27:13;13.07;;;9.63;;
23175;SDS011;19910;42.652;23.332;2022-09-01T00:29:40;16.00;;;10.10;;
23175;SDS011;19910;42.652;23.332;2022-09-01T00:32:08;14.88;;;9.95;;
23175;SDS011;19910;42.652;23.332;2022-09-01T00:34:35;15.27;;;9.75;;
23175;SDS011;19910;42.652;23.332;2022-09-01T00:37:03;17.77;;;10.68;;
23175;SDS011;19910;42.652;23.332;2022-09-01T00:39:29;14.23;;;9.48;;
23175;SDS011;19910;42.652;23.332;2022-09-01T00:41:56;15.93;;;9.65;;
23175;SDS011;19910;42.652;23.332;2022-09-01T00:44:23;13.82;;;9.98;;
23175;SDS011;19910;42.652;23.332;2022-09-01T00:46:52;15.27;;;9.52;;
23175;SDS011;19910;42.652;23.332;2022-09-01T00:49:23;14.07;;;9.43;;
23175;SDS011;19910;42.652;23.332;2022-09-01T00:51:55;14.68;;;9.63;;
23175;SDS011;19910;42.652;23.332;2022-09-01T00:54:27;15.32;;;10.45;;
23175;SDS011;19910;42.652;23.332;2022-09-01T00:57:01;16.73;;;10.60;;
23175;SDS011;19910;42.652;23.332;2022-09-01T00:59:29;17.65;;;9.77;;
23175;SDS011;19910;42.652;23.332;2022-09-01T01:01:57;17.40;;;10.52;;
23175;SDS011;19910;42.652;23.332;2022-09-01T01:04:26;16.90;;;10.98;;
23175;SDS011;19910;42.652;23.332;2022-09-01T01:06:54;18.15;;;10.88;;
23175;SDS011;19910;42.652;23.332;2022-09-01T01:09:26;15.82;;;10.55;;
23175;SDS011;19910;42.652;23.332;2022-09-01T01:11:56;17.45;;;10.55;;
23175;SDS011;19910;42.652;23.332;2022-09-01T01:14:24;17.33;;;9.93;;
23175;SDS011;19910;42.652;23.332;2022-09-01T01:16:56;20.55;;;10.82;;
23175;SDS011;19910;42.652;23.332;2022-09-01T01:19:27;16.65;;;10.50;;
23175;SDS011;19910;42.652;23.332;2022-09-01T01:22:24;15.80;;;9.95;;
23175;SDS011;19910;42.652;23.332;2022-09-01T01:25:13;14.23;;;9.80;;
23175;SDS011;19910;42.652;23.332;2022-09-01T01:27:43;16.50;;;10.63;;
23175;SDS011;19910;42.652;23.332;2022-09-01T01:30:11;16.70;;;10.55;;
23175;SDS011;19910;42.652;23.332;2022-09-01T01:32:38;20.23;;;11.13;;
23175;SDS011;19910;42.652;23.332;2022-09-01T01:35:07;15.68;;;10.13;;
23175;SDS011;19910;42.652;23.332;2022-09-01T01:37:37;18.23;;;10.45;;
23175;SDS011;19910;42.652;23.332;2022-09-01T01:40:05;17.70;;;9.88;;
23175;SDS011;19910;42.652;23.332;2022-09-01T01:42:41;18.00;;;11.55;;
23175;SDS011;19910;42.652;23.332;2022-09-01T01:45:10;16.42;;;9.70;;
23175;SDS011;19910;42.652;23.332;2022-09-01T01:47:41;16.92;;;10.05;;
23175;SDS011;19910;42.652;23.332;2022-09-01T01:50:11;18.02;;;9.73;;
23175;SDS011;19910;42.652;23.332;2022-09-01T01:52:39;17.55;;;9.52;;
23175;SDS011;19910;42.652;23.332;2022-09-01T01:55:07;14.20;;;9.10;;
23175;SDS011;19910;42.652;23.332;2022-09-01T01:57:36;15.65;;;9.52;;
23175;SDS011;19910;42.652;23.332;2022-09-01T02:00:06;25.80;;;10.45;;
23175;SDS011;19910;42.652;23.332;2022-09-01T02:02:35;16.60;;;9.85;;
23175;SDS011;19910;42.652;23.332;2022-09-01T02:05:04;17.13;;;9.50;;
23175;SDS011;19910;42.652;23.332;2022-09-01T02:07:32;15.18;;;9.70;;
23175;SDS011;19910;42.652;23.332;2022-09-01T02:09:59;16.38;;;9.57;;
23175;SDS011;19910;42.652;23.332;2022-09-01T02:12:26;15.75;;;9.27;;
23175;SDS011;19910;42.652;23.332;2022-09-01T02:14:53;17.25;;;9.85;;
23175;SDS011;19910;42.652;23.332;2022-09-01T02:17:21;14.48;;;9.00;;
23175;SDS011;19910;42.652;23.332;2022-09-01T02:19:51;14.38;;;9.57;;
23175;SDS011;19910;42.652;23.332;2022-09-01T02:22:21;13.57;;;9.13;;
23175;SDS011;19910;42.652;23.332;2022-09-01T02:24:48;15.27;;;10.15;;
23175;SDS011;19910;42.652;23.332;2022-09-01T02:27:18;18.40;;;10.20;;
23175;SDS011;19910;42.652;23.332;2022-09-01T02:29:53;16.58;;;10.07;;
23175;SDS011;19910;42.652;23.332;2022-09-01T02:32:24;15.45;;;10.05;;
23175;SDS011;19910;42.652;23.332;2022-09-01T02:34:51;15.02;;;9.98;;
23175;SDS011;19910;42.652;23.332;2022-09-01T02:37:25;15.95;;;9.27;;
23175;SDS011;19910;42.652;23.332;2022-09-01T02:39:54;14.90;;;8.90;;
23175;SDS011;19910;42.652;23.332;2022-09-01T02:42:22;17.33;;;10.55;;
23175;SDS011;19910;42.652;23.332;2022-09-01T02:44:51;14.00;;;9.57;;
23175;SDS011;19910;42.652;23.332;2022-09-01T02:47:19;14.30;;;9.35;;
23175;SDS011;19910;42.652;23.332;2022-09-01T02:49:48;13.40;;;9.27;;
23175;SDS011;19910;42.652;23.332;2022-09-01T02:52:15;16.23;;;9.85;;
23175;SDS011;19910;42.652;23.332;2022-09-01T02:54:45;14.15;;;8.98;;
23175;SDS011;19910;42.652;23.332;2022-09-01T02:57:13;15.85;;;9.48;;
23175;SDS011;19910;42.652;23.332;2022-09-01T02:59:41;13.18;;;8.88;;
23175;SDS011;19910;42.652;23.332;2022-09-01T03:02:08;15.80;;;9.73;;
23175;SDS011;19910;42.652;23.332;2022-09-01T03:04:35;19.20;;;9.88;;
23175;SDS011;19910;42.652;23.332;2022-09-01T03:07:05;17.63;;;9.40;;
23175;SDS011;19910;42.652;23.332;2022-09-01T03:09:32;13.20;;;8.93;;
23175;SDS011;19910;42.652;23.332;2022-09-01T03:12:01;17.05;;;10.55;;
23175;SDS011;19910;42.652;23.332;2022-09-01T03:14:31;19.50;;;9.52;;
23175;SDS011;19910;42.652;23.332;2022-09-01T03:16:58;15.35;;;9.18;;
23175;SDS011;19910;42.652;23.332;2022-09-01T03:19:25;16.08;;;10.10;;
23175;SDS011;19910;42.652;23.332;2022-09-01T03:22:01;17.02;;;9.25;;
23175;SDS011;19910;42.652;23.332;2022-09-01T03:24:29;14.30;;;9.48;;
23175;SDS011;19910;42.652;23.332;2022-09-01T03:26:56;16.83;;;9.82;;
23175;SDS011;19910;42.652;23.332;2022-09-01T03:29:24;14.57;;;9.27;;
23175;SDS011;19910;42.652;23.332;2022-09-01T03:31:51;15.00;;;9.32;;
23175;SDS011;19910;42.652;23.332;2022-09-01T03:34:18;14.48;;;8.85;;
23175;SDS011;19910;42.652;23.332;2022-09-01T03:36:45;14.77;;;8.95;;
23175;SDS011;19910;42.652;23.332;2022-09-01T03:39:15;14.48;;;9.20;;
23175;SDS011;19910;42.652;23.332;2022-09-01T03:41:44;12.45;;;8.85;;
23175;SDS011;19910;42.652;23.332;2022-09-01T03:44:11;15.38;;;8.95;;
23175;SDS011;19910;42.652;23.332;2022-09-01T03:46:41;13.55;;;9.30;;
23175;SDS011;19910;42.652;23.332;2022-09-01T03:49:09;17.33;;;9.15;;
23175;SDS011;19910;42.652;23.332;2022-09-01T03:51:39;15.23;;;9.55;;
23175;SDS011;19910;42.652;23.332;2022-09-01T03:54:06;15.73;;;8.75;;
23175;SDS011;19910;42.652;23.332;2022-09-01T03:56:34;14.40;;;10.05;;
23175;SDS011;19910;42.652;23.332;2022-09-01T03:59:04;15.32;;;9.98;;
23175;SDS011;19910;42.652;23.332;2022-09-01T04:01:31;19.48;;;9.63;;
23175;SDS011;19910;42.652;23.332;2022-09-01T04:03:58;17.00;;;9.48;;
23175;SDS011;19910;42.652;23.332;2022-09-01T04:06:26;15.38;;;9.68;;
23175;SDS011;19910;42.652;23.332;2022-09-01T04:08:54;14.90;;;9.13;;
23175;SDS011;19910;42.652;23.332;2022-09-01T04:11:26;15.80;;;10.20;;
23175;SDS011;19910;42.652;23.332;2022-09-01T04:13:54;20.80;;;10.63;;
23175;SDS011;19910;42.652;23.332;2022-09-01T04:16:24;17.90;;;10.35;;
23175;SDS011;19910;42.652;23.332;2022-09-01T04:19:10;19.40;;;10.15;;
23175;SDS011;19910;42.652;23.332;2022-09-01T04:21:44;19.05;;;10.55;;
23175;SDS011;19910;42.652;23.332;2022-09-01T04:24:11;18.58;;;10.00;;
23175;SDS011;19910;42.652;23.332;2022-09-01T04:26:39;17.80;;;10.13;;
23175;SDS011;19910;42.652;23.332;2022-09-01T04:29:06;22.70;;;11.68;;
23175;SDS011;19910;42.652;23.332;2022-09-01T04:31:37;21.95;;;13.05;;
23175;SDS011;19910;42.652;23.332;2022-09-01T04:34:04;20.83;;;11.88;;
23175;SDS011;19910;42.652;23.332;2022-09-01T04:36:38;18.33;;;10.20;;
23175;SDS011;19910;42.652;23.332;2022-09-01T04:39:08;18.23;;;11.65;;
23175;SDS011;19910;42.652;23.332;2022-09-01T04:41:40;22.02;;;11.50;;
23175;SDS011;19910;42.652;23.332;2022-09-01T04:44:09;24.55;;;10.63;;
23175;SDS011;19910;42.652;23.332;2022-09-01T04:46:37;21.25;;;11.20;;
23175;SDS011;19910;42.652;23.332;2022-09-01T04:49:10;18.80;;;10.98;;
23175;SDS011;19910;42.652;23.332;2022-09-01T04:51:40;15.93;;;10.93;;
23175;SDS011;19910;42.652;23.332;2022-09-01T04:54:09;16.85;;;10.32;;
23175;SDS011;19910;42.652;23.332;2022-09-01T04:56:38;15.10;;;10.30;;
23175;SDS011;19910;42.652;23.332;2022-09-01T04:59:07;21.38;;;10.93;;
23175;SDS011;19910;42.652;23.332;2022-09-01T05:01:37;15.15;;;10.52;;
23175;SDS011;19910;42.652;23.332;2022-09-01T05:04:09;18.40;;;10.00;;
23175;SDS011;19910;42.652;23.332;2022-09-01T05:06:39;19.50;;;10.07;;
23175;SDS011;19910;42.652;23.332;2022-09-01T05:09:07;15.32;;;10.23;;
23175;SDS011;19910;42.652;23.332;2022-09-01T05:11:35;14.45;;;8.95;;
23175;SDS011;19910;42.652;23.332;2022-09-01T05:14:03;25.23;;;9.88;;
23175;SDS011;19910;42.652;23.332;2022-09-01T05:16:31;19.75;;;10.55;;
23175;SDS011;19910;42.652;23.332;2022-09-01T05:19:02;27.63;;;10.93;;
23175;SDS011;19910;42.652;23.332;2022-09-01T05:21:29;21.50;;;10.75;;
23175;SDS011;19910;42.652;23.332;2022-09-01T05:23:56;22.77;;;10.50;;
23175;SDS011;19910;42.652;23.332;2022-09-01T05:26:26;21.67;;;11.43;;
23175;SDS011;19910;42.652;23.332;2022-09-01T05:28:57;22.85;;;11.60;;
23175;SDS011;19910;42.652;23.332;2022-09-01T05:31:27;18.67;;;10.98;;
23175;SDS011;19910;42.652;23.332;2022-09-01T05:34:03;19.90;;;12.02;;
23175;SDS011;19910;42.652;23.332;2022-09-01T05:36:34;14.68;;;10.30;;
23175;SDS011;19910;42.652;23.332;2022-09-01T05:39:02;20.35;;;11.25;;
23175;SDS011;19910;42.652;23.332;2022-09-01T05:41:30;19.92;;;11.90;;
23175;SDS011;19910;42.652;23.332;2022-09-01T05:44:00;19.10;;;13.55;;
23175;SDS011;19910;42.652;23.332;2022-09-01T05:46:31;18.67;;;12.93;;
23175;SDS011;19910;42.652;23.332;2022-09-01T05:48:58;14.75;;;11.00;;
23175;SDS011;19910;42.652;23.332;2022-09-01T05:51:29;14.50;;;10.05;;
23175;SDS011;19910;42.652;23.332;2022-09-01T05:54:00;12.55;;;8.20;;
23175;SDS011;19910;42.652;23.332;2022-09-01T05:56:30;13.88;;;8.25;;
23175;SDS011;19910;42.652;23.332;2022-09-01T05:58:58;10.13;;;7.88;;
23175;SDS011;19910;42.652;23.332;2022-09-01T06:01:27;12.43;;;8.10;;
23175;SDS011;19910;42.652;23.332;2022-09-01T06:03:58;12.18;;;9.32;;
23175;SDS011;19910;42.652;23.332;2022-09-01T06:06:33;13.65;;;9.50;;
23175;SDS011;19910;42.652;23.332;2022-09-01T06:09:03;15.18;;;10.68;;
23175;SDS011;19910;42.652;23.332;2022-09-01T06:11:31;11.75;;;10.07;;
23175;SDS011;19910;42.652;23.332;2022-09-01T06:13:58;11.25;;;9.70;;
23175;SDS011;19910;42.652;23.332;2022-09-01T06:16:25;15.45;;;10.02;;
23175;SDS011;19910;42.652;23.332;2022-09-01T06:18:54;12.27;;;10.90;;
23175;SDS011;19910;42.652;23.332;2022-09-01T06:21:21;15.20;;;11.45;;
23175;SDS011;19910;42.652;23.332;2022-09-01T06:23:50;13.20;;;10.35;;
23175;SDS011;19910;42.652;23.332;2022-09-01T06:26:19;11.80;;;9.80;;
23175;SDS011;19910;42.652;23.332;2022-09-01T06:28:51;17.63;;;12.35;;
23175;SDS011;19910;42.652;23.332;2022-09-01T06:31:19;22.30;;;14.82;;
23175;SDS011;19910;42.652;23.332;2022-09-01T06:33:48;24.13;;;15.18;;
23175;SDS011;19910;42.652;23.332;2022-09-01T06:36:17;23.58;;;15.25;;
23175;SDS011;19910;42.652;23.332;2022-09-01T06:38:45;21.67;;;15.82;;
23175;SDS011;19910;42.652;23.332;2022-09-01T06:41:13;23.13;;;16.25;;
23175;SDS011;19910;42.652;23.332;2022-09-01T06:43:40;23.75;;;16.48;;
23175;SDS011;19910;42.652;23.332;2022-09-01T06:46:07;21.52;;;15.77;;
23175;SDS011;19910;42.652;23.332;2022-09-01T06:48:35;25.42;;;17.38;;
23175;SDS011;19910;42.652;23.332;2022-09-01T06:51:04;24.33;;;16.30;;
23175;SDS011;19910;42.652;23.332;2022-09-01T06:53:33;24.17;;;15.93;;
23175;SDS011;19910;42.652;23.332;2022-09-01T06:56:00;24.13;;;16.48;;
23175;SDS011;19910;42.652;23.332;2022-09-01T06:58:29;23.77;;;16.83;;
23175;SDS011;19910;42.652;23.332;2022-09-01T07:00:57;25.52;;;17.38;;
23175;SDS011;19910;42.652;23.332;2022-09-01T07:03:24;24.60;;;15.90;;
23175;SDS011;19910;42.652;23.332;2022-09-01T07:05:51;27.05;;;16.40;;
23175;SDS011;19910;42.652;23.332;2022-09-01T07:08:21;21.48;;;15.82;;
23175;SDS011;19910;42.652;23.332;2022-09-01T07:10:48;23.13;;;16.20;;
23175;SDS011;19910;42.652;23.332;2022-09-01T07:13:19;29.48;;;18.02;;
23175;SDS011;19910;42.652;23.332;2022-09-01T07:15:51;29.67;;;17.48;;
23175;SDS011;19910;42.652;23.332;2022-09-01T07:18:20;25.17;;;17.17;;
23175;SDS011;19910;42.652;23.332;2022-09-01T07:20:49;26.90;;;18.08;;
23175;SDS011;19910;42.652;23.332;2022-09-01T07:23:17;31.08;;;17.50;;
23175;SDS011;19910;42.652;23.332;2022-09-01T07:25:47;29.65;;;18.92;;
23175;SDS011;19910;42.652;23.332;2022-09-01T07:28:19;29.25;;;17.52;;
23175;SDS011;19910;42.652;23.332;2022-09-01T07:30:49;28.85;;;18.15;;
23175;SDS011;19910;42.652;23.332;2022-09-01T07:33:18;26.45;;;18.02;;
23175;SDS011;19910;42.652;23.332;2022-09-01T07:35:49;27.48;;;18.52;;
23175;SDS011;19910;42.652;23.332;2022-09-01T07:38:17;26.20;;;17.80;;
23175;SDS011;19910;42.652;23.332;2022-09-01T07:40:45;26.23;;;17.35;;
23175;SDS011;19910;42.652;23.332;2022-09-01T07:43:14;22.70;;;16.90;;
23175;SDS011;19910;42.652;23.332;2022-09-01T07:45:47;23.88;;;17.58;;
23175;SDS011;19910;42.652;23.332;2022-09-01T07:48:17;25.60;;;16.88;;
23175;SDS011;19910;42.652;23.332;2022-09-01T07:50:46;21.80;;;16.42;;
23175;SDS011;19910;42.652;23.332;2022-09-01T07:53:17;24.80;;;17.67;;
23175;SDS011;19910;42.652;23.332;2022-09-01T07:55:46;28.75;;;16.75;;
23175;SDS011;19910;42.652;23.332;2022-09-01T07:58:15;20.95;;;16.55;;
23175;SDS011;19910;42.652;23.332;2022-09-01T08:00:43;26.48;;;17.08;;
23175;SDS011;19910;42.652;23.332;2022-09-01T08:03:11;24.40;;;16.67;;
23175;SDS011;19910;42.652;23.332;2022-09-01T08:05:40;21.42;;;15.25;;
23175;SDS011;19910;42.652;23.332;2022-09-01T08:08:07;19.55;;;13.93;;
23175;SDS011;19910;42.652;23.332;2022-09-01T08:10:37;21.02;;;14.55;;
23175;SDS011;19910;42.652;23.332;2022-09-01T08:13:04;21.50;;;15.20;;
23175;SDS011;19910;42.652;23.332;2022-09-01T08:15:31;23.60;;;16.92;;
23175;SDS011;19910;42.652;23.332;2022-09-01T08:17:58;23.50;;;17.27;;
23175;SDS011;19910;42.652;23.332;2022-09-01T08:20:25;26.92;;;16.73;;
23175;SDS011;19910;42.652;23.332;2022-09-01T08:22:53;22.17;;;16.42;;
23175;SDS011;19910;42.652;23.332;2022-09-01T08:25:20;23.52;;;15.60;;
23175;SDS011;19910;42.652;23.332;2022-09-01T08:27:47;24.00;;;16.83;;
23175;SDS011;19910;42.652;23.332;2022-09-01T08:30:14;23.98;;;17.27;;
23175;SDS011;19910;42.652;23.332;2022-09-01T08:32:41;38.85;;;17.10;;
23175;SDS011;19910;42.652;23.332;2022-09-01T08:35:08;25.60;;;16.77;;
23175;SDS011;19910;42.652;23.332;2022-09-01T08:37:35;26.77;;;16.70;;
23175;SDS011;19910;42.652;23.332;2022-09-01T08:40:05;22.40;;;16.77;;
23175;SDS011;19910;42.652;23.332;2022-09-01T08:42:39;24.23;;;16.63;;
23175;SDS011;19910;42.652;23.332;2022-09-01T08:45:19;24.20;;;15.57;;
23175;SDS011;19910;42.652;23.332;2022-09-01T08:47:51;21.15;;;14.88;;
23175;SDS011;19910;42.652;23.332;2022-09-01T08:50:19;26.63;;;16.67;;
23175;SDS011;19910;42.652;23.332;2022-09-01T08:52:48;29.05;;;17.23;;
23175;SDS011;19910;42.652;23.332;2022-09-01T08:55:23;25.75;;;16.80;;
23175;SDS011;19910;42.652;23.332;2022-09-01T08:57:54;22.23;;;15.25;;
23175;SDS011;19910;42.652;23.332;2022-09-01T09:00:23;24.35;;;16.60;;
23175;SDS011;19910;42.652;23.332;2022-09-01T09:02:57;24.48;;;15.20;;
23175;SDS011;19910;42.652;23.332;2022-09-01T09:05:36;24.98;;;16.80;;
23175;SDS011;19910;42.652;23.332;2022-09-01T09:08:23;21.17;;;15.90;;
23175;SDS011;19910;42.652;23.332;2022-09-01T09:11:13;26.48;;;16.38;;
23175;SDS011;19910;42.652;23.332;2022-09-01T09:13:54;23.13;;;15.23;;
23175;SDS011;19910;42.652;23.332;2022-09-01T09:16:30;19.85;;;14.45;;
23175;SDS011;19910;42.652;23.332;2022-09-01T09:19:03;22.63;;;14.95;;
23175;SDS011;19910;42.652;23.332;2022-09-01T09:21:35;20.23;;;14.60;;
23175;SDS011;19910;42.652;23.332;2022-09-01T09:24:05;19.88;;;13.73;;
23175;SDS011;19910;42.652;23.332;2022-09-01T09:26:37;25.13;;;14.20;;
23175;SDS011;19910;42.652;23.332;2022-09-01T09:29:04;21.90;;;13.30;;
23175;SDS011;19910;42.652;23.332;2022-09-01T09:31:32;18.73;;;12.40;;
23175;SDS011;19910;42.652;23.332;2022-09-01T09:34:01;22.27;;;13.02;;
23175;SDS011;19910;42.652;23.332;2022-09-01T09:36:29;20.92;;;13.50;;
23175;SDS011;19910;42.652;23.332;2022-09-01T09:39:03;16.77;;;12.85;;
23175;SDS011;19910;42.652;23.332;2022-09-01T09:41:32;21.75;;;13.60;;
23175;SDS011;19910;42.652;23.332;2022-09-01T09:44:02;22.35;;;13.23;;
23175;SDS011;19910;42.652;23.332;2022-09-01T09:46:34;20.80;;;14.38;;
23175;SDS011;19910;42.652;23.332;2022-09-01T09:49:06;19.77;;;14.20;;
23175;SDS011;19910;42.652;23.332;2022-09-01T09:51:35;21.25;;;14.32;;
23175;SDS011;19910;42.652;23.332;2022-09-01T09:54:10;20.17;;;13.13;;
23175;SDS011;19910;42.652;23.332;2022-09-01T09:56:39;21.38;;;13.25;;
23175;SDS011;19910;42.652;23.332;2022-09-01T09:59:20;17.75;;;12.32;;
23175;SDS011;19910;42.652;23.332;2022-09-01T10:01:49;21.38;;;11.50;;
23175;SDS011;19910;42.652;23.332;2022-09-01T10:04:33;20.75;;;11.27;;
23175;SDS011;19910;42.652;23.332;2022-09-01T10:07:08;20.27;;;11.93;;
23175;SDS011;19910;42.652;23.332;2022-09-01T10:09:49;19.58;;;12.75;;
23175;SDS011;19910;42.652;23.332;2022-09-01T10:12:16;17.50;;;12.05;;
23175;SDS011;19910;42.652;23.332;2022-09-01T10:14:45;15.65;;;11.27;;
23175;SDS011;19910;42.652;23.332;2022-09-01T10:17:18;14.45;;;11.68;;
23175;SDS011;19910;42.652;23.332;2022-09-01T10:19:49;16.90;;;11.60;;
23175;SDS011;19910;42.652;23.332;2022-09-01T10:22:19;15.20;;;11.40;;
23175;SDS011;19910;42.652;23.332;2022-09-01T10:24:48;16.40;;;11.57;;
23175;SDS011;19910;42.652;23.332;2022-09-01T10:27:16;18.05;;;12.05;;
23175;SDS011;19910;42.652;23.332;2022-09-01T10:29:49;17.67;;;11.18;;
23175;SDS011;19910;42.652;23.332;2022-09-01T10:32:20;20.30;;;12.68;;
23175;SDS011;19910;42.652;23.332;2022-09-01T10:34:50;18.45;;;12.50;;
23175;SDS011;19910;42.652;23.332;2022-09-01T10:37:19;24.40;;;12.70;;
23175;SDS011;19910;42.652;23.332;2022-09-01T10:42:45;21.50;;;11.27;;
23175;SDS011;19910;42.652;23.332;2022-09-01T10:45:29;16.88;;;11.55;;
23175;SDS011;19910;42.652;23.332;2022-09-01T10:50:53;14.63;;;11.80;;
23175;SDS011;19910;42.652;23.332;2022-09-01T10:53:39;31.70;;;12.38;;
23175;SDS011;19910;42.652;23.332;2022-09-01T10:56:09;32.85;;;15.52;;
23175;SDS011;19910;42.652;23.332;2022-09-01T10:58:55;16.90;;;11.60;;
23175;SDS011;19910;42.652;23.332;2022-09-01T11:07:34;17.00;;;11.38;;
23175;SDS011;19910;42.652;23.332;2022-09-01T11:10:07;19.27;;;11.45;;
23175;SDS011;19910;42.652;23.332;2022-09-01T11:12:48;17.73;;;11.60;;
23175;SDS011;19910;42.652;23.332;2022-09-01T11:15:36;17.13;;;10.40;;
23175;SDS011;19910;42.652;23.332;2022-09-01T11:18:09;20.23;;;10.00;;
23175;SDS011;19910;42.652;23.332;2022-09-01T11:20:39;18.45;;;10.82;;
23175;SDS011;19910;42.652;23.332;2022-09-01T11:23:09;18.85;;;10.52;;
23175;SDS011;19910;42.652;23.332;2022-09-01T11:25:42;13.55;;;10.68;;
23175;SDS011;19910;42.652;23.332;2022-09-01T11:31:12;14.77;;;10.40;;
23175;SDS011;19910;42.652;23.332;2022-09-01T11:33:49;16.42;;;10.07;;
23175;SDS011;19910;42.652;23.332;2022-09-01T11:36:45;16.42;;;10.63;;
23175;SDS011;19910;42.652;23.332;2022-09-01T11:42:11;14.63;;;10.75;;
23175;SDS011;19910;42.652;23.332;2022-09-01T11:44:46;15.30;;;10.23;;
23175;SDS011;19910;42.652;23.332;2022-09-01T11:47:17;13.10;;;9.65;;
23175;SDS011;19910;42.652;23.332;2022-09-01T11:49:48;16.60;;;10.40;;
23175;SDS011;19910;42.652;23.332;2022-09-01T11:52:19;16.63;;;9.27;;
23175;SDS011;19910;42.652;23.332;2022-09-01T11:54:47;11.82;;;9.10;;
23175;SDS011;19910;42.652;23.332;2022-09-01T11:57:16;11.73;;;9.13;;
23175;SDS011;19910;42.652;23.332;2022-09-01T11:59:54;12.05;;;9.05;;
23175;SDS011;19910;42.652;23.332;2022-09-01T12:02:23;14.63;;;9.60;;
23175;SDS011;19910;42.652;23.332;2022-09-01T12:04:53;12.88;;;9.13;;
23175;SDS011;19910;42.652;23.332;2022-09-01T12:07:29;11.90;;;9.38;;
23175;SDS011;19910;42.652;23.332;2022-09-01T12:10:12;13.02;;;8.75;;
23175;SDS011;19910;42.652;23.332;2022-09-01T12:12:42;12.48;;;9.40;;
23175;SDS011;19910;42.652;23.332;2022-09-01T12:15:10;15.63;;;9.63;;
23175;SDS011;19910;42.652;23.332;2022-09-01T12:17:44;11.70;;;9.20;;
23175;SDS011;19910;42.652;23.332;2022-09-01T12:20:23;11.77;;;9.30;;
23175;SDS011;19910;42.652;23.332;2022-09-01T12:22:53;14.13;;;10.13;;
23175;SDS011;19910;42.652;23.332;2022-09-01T12:25:21;13.07;;;10.55;;
23175;SDS011;19910;42.652;23.332;2022-09-01T12:27:50;12.63;;;10.40;;
23175;SDS011;19910;42.652;23.332;2022-09-01T12:30:18;17.67;;;10.02;;
23175;SDS011;19910;42.652;23.332;2022-09-01T12:32:45;15.38;;;10.15;;
23175;SDS011;19910;42.652;23.332;2022-09-01T12:35:14;13.65;;;9.65;;
23175;SDS011;19910;42.652;23.332;2022-09-01T12:37:47;13.88;;;10.30;;
23175;SDS011;19910;42.652;23.332;2022-09-01T12:40:22;16.90;;;10.48;;
23175;SDS011;19910;42.652;23.332;2022-09-01T12:42:51;13.30;;;10.00;;
23175;SDS011;19910;42.652;23.332;2022-09-01T12:45:35;13.75;;;10.55;;
23175;SDS011;19910;42.652;23.332;2022-09-01T12:48:03;20.50;;;10.85;;
23175;SDS011;19910;42.652;23.332;2022-09-01T12:50:34;15.13;;;10.10;;
23175;SDS011;19910;42.652;23.332;2022-09-01T12:53:14;15.85;;;10.65;;
23175;SDS011;19910;42.652;23.332;2022-09-01T12:59:02;16.98;;;10.40;;
23175;SDS011;19910;42.652;23.332;2022-09-01T13:01:33;15.13;;;10.32;;
23175;SDS011;19910;42.652;23.332;2022-09-01T13:06:54;17.98;;;10.57;;
23175;SDS011;19910;42.652;23.332;2022-09-01T13:09:26;17.85;;;10.15;;
23175;SDS011;19910;42.652;23.332;2022-09-01T13:12:07;14.75;;;10.32;;
23175;SDS011;19910;42.652;23.332;2022-09-01T13:14:41;13.27;;;11.05;;
23175;SDS011;19910;42.652;23.332;2022-09-01T13:17:07;13.25;;;10.45;;
23175;SDS011;19910;42.652;23.332;2022-09-01T13:19:34;14.52;;;10.32;;
23175;SDS011;19910;42.652;23.332;2022-09-01T13:22:03;17.58;;;11.13;;
23175;SDS011;19910;42.652;23.332;2022-09-01T13:24:32;13.73;;;9.73;;
23175;SDS011;19910;42.652;23.332;2022-09-01T13:26:59;17.42;;;10.45;;
23175;SDS011;19910;42.652;23.332;2022-09-01T13:29:26;13.70;;;10.40;;
23175;SDS011;19910;42.652;23.332;2022-09-01T13:31:53;20.45;;;10.75;;
23175;SDS011;19910;42.652;23.332;2022-09-01T13:34:19;15.57;;;10.27;;
23175;SDS011;19910;42.652;23.332;2022-09-01T13:36:46;18.00;;;11.02;;
23175;SDS011;19910;42.652;23.332;2022-09-01T13:39:13;15.68;;;11.05;;
23175;SDS011;19910;42.652;23.332;2022-09-01T13:41:41;14.80;;;10.38;;
23175;SDS011;19910;42.652;23.332;2022-09-01T13:44:08;13.10;;;9.20;;
23175;SDS011;19910;42.652;23.332;2022-09-01T13:46:35;15.43;;;10.43;;
23175;SDS011;19910;42.652;23.332;2022-09-01T13:49:03;16.00;;;10.30;;
23175;SDS011;19910;42.652;23.332;2022-09-01T13:51:29;15.35;;;9.57;;
23175;SDS011;19910;42.652;23.332;2022-09-01T13:53:56;10.50;;;8.85;;
23175;SDS011;19910;42.652;23.332;2022-09-01T13:56:23;12.65;;;9.15;;
23175;SDS011;19910;42.652;23.332;2022-09-01T13:58:51;13.82;;;9.48;;
23175;SDS011;19910;42.652;23.332;2022-09-01T14:01:19;14.45;;;9.07;;
23175;SDS011;19910;42.652;23.332;2022-09-01T14:03:47;11.20;;;9.18;;
23175;SDS011;19910;42.652;23.332;2022-09-01T14:06:15;17.00;;;9.82;;
23175;SDS011;19910;42.652;23.332;2022-09-01T14:08:42;10.82;;;8.88;;
23175;SDS011;19910;42.652;23.332;2022-09-01T14:11:14;11.43;;;9.30;;
23175;SDS011;19910;42.652;23.332;2022-09-01T14:13:42;15.77;;;10.50;;
23175;SDS011;19910;42.652;23.332;2022-09-01T14:16:11;15.65;;;9.68;;
23175;SDS011;19910;42.652;23.332;2022-09-01T14:18:39;12.18;;;9.90;;
23175;SDS011;19910;42.652;23.332;2022-09-01T14:21:09;12.27;;;9.70;;
23175;SDS011;19910;42.652;23.332;2022-09-01T14:23:37;14.13;;;10.32;;
23175;SDS011;19910;42.652;23.332;2022-09-01T14:26:06;13.82;;;10.23;;
23175;SDS011;19910;42.652;23.332;2022-09-01T14:28:35;18.27;;;10.90;;
23175;SDS011;19910;42.652;23.332;2022-09-01T14:31:06;13.65;;;10.82;;
23175;SDS011;19910;42.652;23.332;2022-09-01T14:33:35;14.63;;;10.15;;
23175;SDS011;19910;42.652;23.332;2022-09-01T14:36:03;15.20;;;10.48;;
23175;SDS011;19910;42.652;23.332;2022-09-01T14:38:31;20.02;;;10.13;;
23175;SDS011;19910;42.652;23.332;2022-09-01T14:40:59;21.40;;;10.38;;
23175;SDS011;19910;42.652;23.332;2022-09-01T14:43:26;13.77;;;9.88;;
23175;SDS011;19910;42.652;23.332;2022-09-01T14:46:03;13.75;;;9.77;;
23175;SDS011;19910;42.652;23.332;2022-09-01T14:48:31;15.02;;;10.15;;
23175;SDS011;19910;42.652;23.332;2022-09-01T14:51:00;14.15;;;9.57;;
23175;SDS011;19910;42.652;23.332;2022-09-01T14:53:28;16.13;;;10.35;;